createdAt,value
2023-04-30T19:27:10.113Z,2.90
2023-04-30T19:29:41.030Z,3.13
2023-04-30T19:32:12.584Z,3.45
2023-04-30T19:34:44.171Z,2.70
2023-04-30T19:37:14.691Z,3.15
2023-04-30T19:39:46.646Z,2.92
2023-04-30T19:42:17.988Z,3.58
2023-04-30T19:44:51.108Z,3.30
2023-04-30T19:47:21.585Z,3.00
2023-04-30T19:49:53.489Z,3.80
2023-04-30T19:52:24.753Z,3.63
2023-04-30T19:54:56.833Z,3.88
2023-04-30T19:57:27.772Z,4.30
2023-04-30T19:59:58.832Z,3.53
2023-04-30T20:02:30.427Z,4.18
2023-04-30T20:05:01.865Z,3.30
2023-04-30T20:07:33.060Z,4.03
2023-04-30T20:10:03.291Z,5.03
2023-04-30T20:12:33.299Z,5.07
2023-04-30T20:15:04.419Z,4.90
2023-04-30T20:17:38.455Z,4.38
2023-04-30T20:20:09.372Z,4.80
2023-04-30T20:22:40.331Z,4.50
2023-04-30T20:25:13.811Z,3.90
2023-04-30T20:27:45.239Z,3.95
2023-04-30T20:30:18.398Z,3.08
2023-04-30T20:32:48.754Z,1.90
2023-04-30T20:35:20.312Z,1.65
2023-04-30T20:37:56.690Z,2.10
2023-04-30T20:40:28.152Z,1.98
2023-04-30T20:42:58.490Z,2.20
2023-04-30T20:45:30.873Z,1.65
2023-04-30T20:48:01.296Z,2.10
2023-04-30T20:50:31.423Z,2.33
2023-04-30T20:53:02.878Z,2.45
2023-04-30T20:55:33.464Z,2.03
2023-04-30T20:58:06.237Z,2.10
2023-04-30T21:00:37.444Z,2.25
2023-04-30T21:03:07.788Z,1.85
2023-04-30T21:05:37.853Z,1.90
2023-04-30T21:08:08.986Z,2.10
2023-04-30T21:10:39.590Z,1.95
2023-04-30T21:13:10.949Z,1.98
2023-04-30T21:15:43.599Z,2.00
2023-04-30T21:18:13.792Z,2.50
2023-04-30T21:20:44.596Z,2.75
2023-04-30T21:23:17.465Z,2.42
2023-04-30T21:25:48.400Z,1.80
2023-04-30T21:28:19.543Z,3.00
2023-04-30T21:30:51.091Z,2.83
2023-04-30T21:33:23.004Z,2.72
2023-04-30T21:35:53.699Z,2.53
2023-04-30T21:38:24.509Z,3.25
2023-04-30T21:40:55.856Z,3.85
2023-04-30T21:43:26.608Z,3.65
2023-04-30T21:46:03.301Z,3.90
